Time,TemperatureF,DewpointF,PressureIn,WindDirection,WindDirectionDegrees,WindSpeedMPH,WindSpeedGustMPH,Humidity,HourlyPrecipIn,Conditions,Clouds,dailyrainin,SoftwareType,DateUTC
2013-11-07 00:01:00,56.8,51.4,29.98,SSW,209,0.0,0.0,82,0.00,,,0.00,JWX,2013-11-07 05:01:00,
2013-11-07 00:02:00,56.8,51.4,29.98,SSW,204,0.0,0.0,82,0.00,,,0.00,JWX,2013-11-07 05:02:00,
2013-11-07 00:06:00,56.8,51.4,29.98,South,191,0.0,0.0,82,0.00,,,0.00,JWX,2013-11-07 05:06:00,
2013-11-07 00:11:00,56.8,51.4,29.98,South,185,0.0,0.0,82,0.00,,,0.00,JWX,2013-11-07 05:11:00,
2013-11-07 00:16:00,56.7,51.2,29.97,South,174,0.0,0.0,82,0.00,,,0.00,JWX,2013-11-07 05:16:00,
2013-11-07 00:21:00,56.7,51.6,29.97,South,188,0.0,0.0,83,0.00,,,0.00,JWX,2013-11-07 05:21:00,
2013-11-07 00:26:00,56.7,51.6,29.96,South,176,0.0,0.0,83,0.00,,,0.00,JWX,2013-11-07 05:26:00,
2013-11-07 00:31:00,56.6,51.6,29.96,SSW,204,0.0,0.0,83,0.00,,,0.00,JWX,2013-11-07 05:31:00,
2013-11-07 00:36:00,56.7,51.6,29.96,SSW,197,0.0,0.0,83,0.00,,,0.00,JWX,2013-11-07 05:36:00,
2013-11-07 00:41:00,56.7,51.6,29.96,South,188,0.0,0.0,83,0.00,,,0.00,JWX,2013-11-07 05:41:00,
2013-11-07 00:46:00,56.8,51.4,29.96,South,184,0.0,0.0,82,0.00,,,0.00,JWX,2013-11-07 05:46:00,
2013-11-07 00:51:00,56.8,51.4,29.96,South,184,0.0,0.0,82,0.00,,,0.00,JWX,2013-11-07 05:51:00,
2013-11-07 00:56:00,56.8,51.4,29.96,South,180,0.0,0.0,82,0.00,,,0.00,JWX,2013-11-07 05:56:00,
2013-11-07 01:02:00,56.8,51.4,29.95,SSW,202,0.0,0.0,82,0.00,,,0.00,JWX,2013-11-07 06:02:00,
2013-11-07 01:07:00,56.9,51.4,29.95,SSW,195,0.0,0.0,82,0.00,,,0.00,JWX,2013-11-07 06:07:00,
2013-11-07 01:12:00,56.9,51.4,29.95,SSW,196,0.0,0.0,82,0.00,,,0.00,JWX,2013-11-07 06:12:00,
2013-11-07 01:17:00,57.0,51.6,29.95,SW,215,0.0,0.0,82,0.00,,,0.00,JWX,2013-11-07 06:17:00,
2013-11-07 01:22:00,57.0,51.6,29.95,SSW,211,0.0,0.0,82,0.00,,,0.00,JWX,2013-11-07 06:22:00,
2013-11-07 01:27:00,57.1,51.6,29.95,SSW,211,0.0,0.0,82,0.00,,,0.00,JWX,2013-11-07 06:27:00,
2013-11-07 01:32:00,57.2,51.8,29.94,South,186,0.0,0.0,82,0.00,,,0.00,JWX,2013-11-07 06:32:00,
2013-11-07 01:37:00,57.2,51.8,29.94,SSW,210,0.0,0.0,82,0.00,,,0.00,JWX,2013-11-07 06:37:00,
2013-11-07 01:42:00,57.3,51.9,29.94,SW,236,0.0,0.0,82,0.00,,,0.00,JWX,2013-11-07 06:42:00,
2013-11-07 01:47:00,57.4,51.9,29.93,South,191,0.0,0.0,82,0.00,,,0.00,JWX,2013-11-07 06:47:00,
2013-11-07 01:52:00,57.5,52.1,29.93,SW,217,0.0,0.0,82,0.00,,,0.00,JWX,2013-11-07 06:52:00,
2013-11-07 01:57:00,57.6,52.1,29.93,South,175,0.0,0.0,82,0.00,,,0.00,JWX,2013-11-07 06:57:00,
2013-11-07 02:02:00,57.6,52.1,29.92,South,181,0.0,2.0,82,0.00,,,0.00,JWX,2013-11-07 07:02:00,
2013-11-07 02:07:00,57.6,52.1,29.91,SSW,205,0.0,0.0,82,0.00,,,0.00,JWX,2013-11-07 07:07:00,
2013-11-07 02:12:00,57.7,52.3,29.91,SW,220,0.0,0.0,82,0.00,,,0.00,JWX,2013-11-07 07:12:00,
2013-11-07 02:17:00,57.8,52.3,29.91,SSW,193,0.0,0.0,82,0.00,,,0.00,JWX,2013-11-07 07:17:00,
2013-11-07 02:22:00,57.8,52.3,29.91,South,179,0.0,0.0,82,0.00,,,0.00,JWX,2013-11-07 07:22:00,
2013-11-07 02:27:00,57.7,52.3,29.91,SSW,211,0.0,0.0,82,0.00,,,0.00,JWX,2013-11-07 07:27:00,
2013-11-07 02:32:00,57.7,52.3,29.91,SW,236,0.0,0.0,82,0.00,,,0.00,JWX,2013-11-07 07:32:00,
2013-11-07 02:37:00,57.7,52.3,29.91,WSW,239,0.0,0.0,82,0.00,,,0.00,JWX,2013-11-07 07:37:00,
2013-11-07 02:42:00,57.7,52.3,29.91,SW,220,0.0,0.0,82,0.00,,,0.00,JWX,2013-11-07 07:42:00,
2013-11-07 02:47:00,57.7,52.3,29.90,SW,214,0.0,0.0,82,0.00,,,0.00,JWX,2013-11-07 07:47:00,
2013-11-07 02:52:00,57.7,52.3,29.90,SSW,194,0.0,0.0,82,0.00,,,0.00,JWX,2013-11-07 07:52:00,
2013-11-07 02:57:00,57.7,52.3,29.90,SW,231,0.0,0.0,82,0.00,,,0.00,JWX,2013-11-07 07:57:00,
2013-11-07 03:02:00,57.6,52.1,29.89,SW,214,0.0,0.0,82,0.00,,,0.00,JWX,2013-11-07 08:02:00,
2013-11-07 03:07:00,57.6,52.1,29.89,SSW,192,0.0,0.0,82,0.00,,,0.00,JWX,2013-11-07 08:07:00,
2013-11-07 03:12:00,57.6,52.1,29.89,SW,215,0.0,0.0,82,0.00,,,0.00,JWX,2013-11-07 08:12:00,
2013-11-07 03:17:00,57.6,52.1,29.88,SW,218,0.0,1.0,82,0.00,,,0.00,JWX,2013-11-07 08:17:00,
2013-11-07 03:22:00,57.6,52.1,29.88,South,188,0.0,1.0,82,0.00,,,0.00,JWX,2013-11-07 08:22:00,
2013-11-07 03:27:00,57.6,52.1,29.88,SSW,212,0.0,0.0,82,0.00,,,0.00,JWX,2013-11-07 08:27:00,
2013-11-07 03:32:00,57.6,52.1,29.87,South,190,0.0,0.0,82,0.00,,,0.00,JWX,2013-11-07 08:32:00,
2013-11-07 03:37:00,57.6,52.1,29.87,SSW,197,1.0,2.0,82,0.00,,,0.00,JWX,2013-11-07 08:37:00,
2013-11-07 03:42:00,57.5,52.1,29.87,SSW,209,4.0,7.0,82,0.00,,,0.00,JWX,2013-11-07 08:42:00,
2013-11-07 03:47:00,57.6,52.1,29.86,SSW,198,4.0,0.0,82,0.00,,,0.00,JWX,2013-11-07 08:47:00,
2013-11-07 03:52:00,57.6,52.1,29.86,South,185,4.0,13.0,82,0.00,,,0.00,JWX,2013-11-07 08:52:00,
2013-11-07 03:57:00,57.6,52.1,29.86,West,261,6.0,0.0,82,0.00,,,0.00,JWX,2013-11-07 08:57:00,
2013-11-07 04:02:00,57.6,52.1,29.87,SW,227,5.0,5.0,82,0.00,,,0.00,JWX,2013-11-07 09:02:00,
2013-11-07 04:07:00,57.6,52.1,29.86,South,185,4.0,5.0,82,0.00,,,0.00,JWX,2013-11-07 09:07:00,
2013-11-07 04:12:00,57.6,52.1,29.86,SSW,199,3.0,3.0,82,0.00,,,0.00,JWX,2013-11-07 09:12:00,
2013-11-07 04:17:00,57.6,52.1,29.85,South,184,3.0,5.0,82,0.00,,,0.00,JWX,2013-11-07 09:17:00,
2013-11-07 04:22:00,57.7,52.3,29.85,SSW,209,4.0,10.0,82,0.00,,,0.00,JWX,2013-11-07 09:22:00,
2013-11-07 04:27:00,57.7,52.3,29.85,South,189,6.0,7.0,82,0.00,,,0.00,JWX,2013-11-07 09:27:00,
2013-11-07 04:32:00,57.8,52.3,29.85,SSW,204,5.0,0.0,82,0.00,,,0.00,JWX,2013-11-07 09:32:00,
2013-11-07 04:37:00,57.7,52.3,29.85,SW,235,2.0,4.0,82,0.00,,,0.00,JWX,2013-11-07 09:37:00,
2013-11-07 04:42:00,57.7,52.3,29.85,SW,223,2.0,6.0,82,0.00,,,0.00,JWX,2013-11-07 09:42:00,
2013-11-07 04:47:00,57.7,52.3,29.85,West,260,3.0,5.0,82,0.00,,,0.00,JWX,2013-11-07 09:47:00,
2013-11-07 04:52:00,57.7,52.3,29.85,SW,219,2.0,2.0,82,0.00,,,0.00,JWX,2013-11-07 09:52:00,
2013-11-07 04:57:00,57.6,52.1,29.84,SSW,205,2.0,5.0,82,0.00,,,0.00,JWX,2013-11-07 09:57:00,
2013-11-07 05:02:00,57.6,52.4,29.85,South,191,2.0,3.0,83,0.00,,,0.00,JWX,2013-11-07 10:02:00,
2013-11-07 05:07:00,57.6,52.8,29.85,WSW,246,2.0,2.0,84,0.00,,,0.00,JWX,2013-11-07 10:07:00,
2013-11-07 05:12:00,57.4,53.2,29.85,WSW,246,3.0,0.0,86,0.01,,,0.01,JWX,2013-11-07 10:12:00,
2013-11-07 05:17:00,57.2,53.4,29.85,WSW,246,2.0,0.0,87,0.01,,,0.01,JWX,2013-11-07 10:17:00,
2013-11-07 05:22:00,56.8,53.3,29.86,WSW,246,0.0,0.0,88,0.03,,,0.03,JWX,2013-11-07 10:22:00,
2013-11-07 05:27:00,56.4,53.3,29.85,WSW,240,1.0,3.0,89,0.04,,,0.04,JWX,2013-11-07 10:27:00,
2013-11-07 05:32:00,55.9,53.0,29.85,SSW,212,1.0,5.0,90,0.05,,,0.05,JWX,2013-11-07 10:32:00,
2013-11-07 05:37:00,55.6,53.0,29.85,SW,230,2.0,6.0,91,0.05,,,0.05,JWX,2013-11-07 10:37:00,
2013-11-07 05:42:00,55.3,52.9,29.85,SW,236,2.0,0.0,92,0.06,,,0.06,JWX,2013-11-07 10:42:00,
2013-11-07 05:47:00,55.1,52.8,29.85,WSW,238,1.0,0.0,92,0.07,,,0.07,JWX,2013-11-07 10:47:00,
2013-11-07 05:52:00,55.0,52.8,29.85,SW,228,1.0,2.0,92,0.07,,,0.07,JWX,2013-11-07 10:52:00,
2013-11-07 05:57:00,54.8,52.9,29.85,SW,221,2.0,6.0,93,0.08,,,0.08,JWX,2013-11-07 10:57:00,
2013-11-07 06:02:00,54.7,53.0,29.85,SSW,199,4.0,0.0,94,0.00,,,0.09,JWX,2013-11-07 11:02:00,
2013-11-07 06:07:00,54.6,53.0,29.85,SW,233,3.0,5.0,94,0.01,,,0.10,JWX,2013-11-07 11:07:00,
2013-11-07 06:12:00,54.5,52.8,29.85,SSW,207,2.0,0.0,94,0.02,,,0.11,JWX,2013-11-07 11:12:00,
2013-11-07 06:17:00,54.4,52.6,29.85,SW,224,3.0,6.0,94,0.02,,,0.11,JWX,2013-11-07 11:17:00,
2013-11-07 06:22:00,54.3,52.9,29.84,SW,217,3.0,3.0,95,0.02,,,0.11,JWX,2013-11-07 11:22:00,
2013-11-07 06:27:00,54.2,52.7,29.84,SSW,209,3.0,0.0,95,0.03,,,0.12,JWX,2013-11-07 11:27:00,
2013-11-07 06:32:00,54.1,52.7,29.84,SW,220,3.0,4.0,95,0.03,,,0.12,JWX,2013-11-07 11:32:00,
2013-11-07 06:34:00,54.1,52.7,29.84,SW,220,3.0,11.0,95,0.03,,,0.12,JWX,2013-11-07 11:34:00,
2013-11-07 06:39:00,54.1,52.7,29.84,SW,218,3.0,3.0,95,0.03,,,0.12,JWX,2013-11-07 11:39:00,
2013-11-07 06:44:00,54.0,52.6,29.84,SW,228,3.0,3.0,95,0.04,,,0.13,JWX,2013-11-07 11:44:00,
2013-11-07 06:49:00,54.0,52.6,29.84,SW,222,4.0,4.0,95,0.05,,,0.14,JWX,2013-11-07 11:49:00,
2013-11-07 06:54:00,54.0,52.8,29.84,SW,223,4.0,6.0,96,0.06,,,0.15,JWX,2013-11-07 11:54:00,
2013-11-07 06:59:00,54.0,52.6,29.85,SW,227,4.0,0.0,95,0.08,,,0.17,JWX,2013-11-07 11:59:00,
2013-11-07 07:04:00,53.9,52.8,29.85,WSW,252,4.0,4.0,96,0.01,,,0.18,JWX,2013-11-07 12:04:00,
2013-11-07 07:09:00,53.9,52.8,29.86,West,278,3.0,3.0,96,0.02,,,0.19,JWX,2013-11-07 12:09:00,
2013-11-07 07:14:00,53.9,52.8,29.87,WNW,284,3.0,3.0,96,0.03,,,0.20,JWX,2013-11-07 12:14:00,
2013-11-07 07:19:00,53.9,52.8,29.86,SW,234,3.0,3.0,96,0.04,,,0.21,JWX,2013-11-07 12:19:00,
2013-11-07 07:24:00,53.8,52.7,29.86,WSW,241,4.0,6.0,96,0.06,,,0.23,JWX,2013-11-07 12:24:00,
2013-11-07 07:29:00,53.7,52.7,29.87,West,260,4.0,4.0,96,0.07,,,0.24,JWX,2013-11-07 12:29:00,
2013-11-07 07:34:00,53.7,52.7,29.87,West,260,5.0,6.0,96,0.08,,,0.25,JWX,2013-11-07 12:34:00,
2013-11-07 07:39:00,53.6,52.5,29.86,SW,230,4.0,0.0,96,0.09,,,0.26,JWX,2013-11-07 12:39:00,
2013-11-07 07:44:00,53.6,52.5,29.86,SW,230,3.0,3.0,96,0.09,,,0.26,JWX,2013-11-07 12:44:00,
2013-11-07 07:49:00,53.5,52.3,29.86,SW,231,2.0,4.0,96,0.10,,,0.27,JWX,2013-11-07 12:49:00,
2013-11-07 07:54:00,53.5,52.3,29.86,SW,235,2.0,2.0,96,0.11,,,0.28,JWX,2013-11-07 12:54:00,
2013-11-07 07:59:00,53.5,52.3,29.87,WSW,256,2.0,0.0,96,0.11,,,0.28,JWX,2013-11-07 12:59:00,
2013-11-07 08:04:00,53.5,52.3,29.86,WSW,247,1.0,0.0,96,0.00,,,0.28,JWX,2013-11-07 13:04:00,
2013-11-07 08:09:00,53.5,52.6,29.86,WSW,247,1.0,0.0,97,0.01,,,0.29,JWX,2013-11-07 13:09:00,
2013-11-07 08:14:00,53.5,52.6,29.87,WSW,244,0.0,3.0,97,0.01,,,0.29,JWX,2013-11-07 13:14:00,
2013-11-07 08:19:00,53.5,52.6,29.86,WSW,244,1.0,2.0,97,0.02,,,0.30,JWX,2013-11-07 13:19:00,
2013-11-07 08:24:00,53.6,52.8,29.86,WSW,244,1.0,0.0,97,0.03,,,0.31,JWX,2013-11-07 13:24:00,
2013-11-07 08:29:00,53.6,52.8,29.86,WSW,244,1.0,0.0,97,0.04,,,0.32,JWX,2013-11-07 13:29:00,
2013-11-07 08:34:00,53.6,52.8,29.85,WSW,244,1.0,3.0,97,0.05,,,0.33,JWX,2013-11-07 13:34:00,
2013-11-07 08:39:00,53.7,52.9,29.86,WSW,245,1.0,0.0,97,0.06,,,0.34,JWX,2013-11-07 13:39:00,
2013-11-07 08:44:00,53.7,52.9,29.86,WSW,253,2.0,5.0,97,0.06,,,0.34,JWX,2013-11-07 13:44:00,
2013-11-07 08:49:00,53.7,52.9,29.86,West,272,3.0,5.0,97,0.07,,,0.35,JWX,2013-11-07 13:49:00,
2013-11-07 08:54:00,53.7,52.9,29.86,WSW,244,4.0,11.0,97,0.07,,,0.35,JWX,2013-11-07 13:54:00,
2013-11-07 08:59:00,53.7,52.9,29.86,WSW,252,5.0,6.0,97,0.08,,,0.36,JWX,2013-11-07 13:59:00,
2013-11-07 09:04:00,53.7,52.9,29.86,West,263,5.0,10.0,97,0.00,,,0.36,JWX,2013-11-07 14:04:00,
2013-11-07 09:09:00,53.7,52.9,29.87,WSW,247,4.0,0.0,97,0.01,,,0.37,JWX,2013-11-07 14:09:00,
2013-11-07 09:14:00,53.6,52.8,29.86,West,259,5.0,10.0,97,0.01,,,0.37,JWX,2013-11-07 14:14:00,
2013-11-07 09:19:00,53.5,52.6,29.87,West,259,4.0,8.0,97,0.02,,,0.38,JWX,2013-11-07 14:19:00,
2013-11-07 09:24:00,53.4,52.6,29.87,West,267,4.0,4.0,97,0.03,,,0.39,JWX,2013-11-07 14:24:00,
2013-11-07 09:29:00,53.3,52.4,29.87,West,271,5.0,7.0,97,0.03,,,0.39,JWX,2013-11-07 14:29:00,
2013-11-07 09:34:00,53.2,52.4,29.88,West,269,5.0,9.0,97,0.04,,,0.40,JWX,2013-11-07 14:34:00,
2013-11-07 09:39:00,53.2,52.4,29.88,West,276,6.0,6.0,97,0.05,,,0.41,JWX,2013-11-07 14:39:00,
2013-11-07 09:44:00,53.2,52.4,29.87,West,275,5.0,0.0,97,0.05,,,0.41,JWX,2013-11-07 14:44:00,
2013-11-07 09:49:00,53.1,52.2,29.87,West,264,3.0,5.0,97,0.06,,,0.42,JWX,2013-11-07 14:49:00,
2013-11-07 09:54:00,53.1,52.2,29.87,West,274,2.0,4.0,97,0.06,,,0.42,JWX,2013-11-07 14:54:00,
2013-11-07 09:59:00,53.1,52.2,29.87,NW,309,2.0,0.0,97,0.07,,,0.43,JWX,2013-11-07 14:59:00,
2013-11-07 10:04:00,53.0,52.2,29.87,NNW,340,3.0,3.0,97,0.00,,,0.43,JWX,2013-11-07 15:04:00,
2013-11-07 10:09:00,52.9,52.1,29.87,NNW,340,2.0,0.0,97,0.01,,,0.44,JWX,2013-11-07 15:09:00,
2013-11-07 10:14:00,52.8,52.1,29.86,North,354,3.0,0.0,97,0.01,,,0.44,JWX,2013-11-07 15:14:00,
2013-11-07 10:19:00,52.5,51.7,29.86,NNW,336,3.0,4.0,97,0.02,,,0.45,JWX,2013-11-07 15:19:00,
2013-11-07 10:24:00,52.2,51.3,29.85,NNW,338,4.0,4.0,97,0.02,,,0.45,JWX,2013-11-07 15:24:00,
2013-11-07 10:29:00,52.0,51.2,29.85,NNW,342,4.0,4.0,97,0.03,,,0.46,JWX,2013-11-07 15:29:00,
2013-11-07 10:34:00,51.8,51.0,29.86,NW,315,4.0,4.0,97,0.03,,,0.46,JWX,2013-11-07 15:34:00,
2013-11-07 10:39:00,51.7,50.8,29.87,NNW,330,3.0,4.0,97,0.04,,,0.47,JWX,2013-11-07 15:39:00,
2013-11-07 10:44:00,51.6,50.8,29.87,WNW,298,4.0,9.0,97,0.04,,,0.47,JWX,2013-11-07 15:44:00,
2013-11-07 10:49:00,51.5,50.6,29.88,WNW,293,5.0,5.0,97,0.05,,,0.48,JWX,2013-11-07 15:49:00,
2013-11-07 10:54:00,51.5,50.6,29.87,WNW,297,4.0,0.0,97,0.06,,,0.49,JWX,2013-11-07 15:54:00,
2013-11-07 10:59:00,51.4,50.6,29.87,WNW,301,3.0,0.0,97,0.07,,,0.50,JWX,2013-11-07 15:59:00,
2013-11-07 11:04:00,51.4,50.6,29.87,NW,320,2.0,0.0,97,0.00,,,0.50,JWX,2013-11-07 16:04:00,
2013-11-07 11:09:00,51.3,50.4,29.87,NW,308,2.0,7.0,97,0.01,,,0.51,JWX,2013-11-07 16:09:00,
2013-11-07 11:14:00,51.1,50.0,29.86,WNW,299,2.0,5.0,96,0.02,,,0.52,JWX,2013-11-07 16:14:00,
2013-11-07 11:19:00,50.8,49.6,29.87,NW,305,3.0,3.0,96,0.02,,,0.52,JWX,2013-11-07 16:19:00,
2013-11-07 11:24:00,50.6,49.4,29.88,WNW,293,4.0,5.0,96,0.02,,,0.52,JWX,2013-11-07 16:24:00,
2013-11-07 11:29:00,50.2,49.1,29.88,WNW,302,5.0,5.0,96,0.02,,,0.52,JWX,2013-11-07 16:29:00,
2013-11-07 11:34:00,50.0,48.9,29.88,WNW,300,5.0,6.0,96,0.04,,,0.54,JWX,2013-11-07 16:34:00,
2013-11-07 11:39:00,49.8,48.7,29.88,NW,305,4.0,6.0,96,0.04,,,0.54,JWX,2013-11-07 16:39:00,
2013-11-07 11:44:00,49.7,48.5,29.87,NW,315,5.0,0.0,96,0.05,,,0.55,JWX,2013-11-07 16:44:00,
2013-11-07 11:49:00,49.7,48.5,29.88,NW,305,4.0,4.0,96,0.05,,,0.55,JWX,2013-11-07 16:49:00,
2013-11-07 11:54:00,49.6,48.5,29.88,WNW,300,3.0,5.0,96,0.06,,,0.56,JWX,2013-11-07 16:54:00,
2013-11-07 11:59:00,49.5,48.4,29.87,WNW,298,3.0,9.0,96,0.06,,,0.56,JWX,2013-11-07 16:59:00,
2013-11-07 12:04:00,49.5,48.4,29.87,WNW,286,2.0,2.0,96,0.00,,,0.56,JWX,2013-11-07 17:04:00,
2013-11-07 12:09:00,49.4,48.4,29.87,WNW,295,3.0,3.0,96,0.01,,,0.57,JWX,2013-11-07 17:09:00,
2013-11-07 12:14:00,49.3,48.2,29.87,NW,319,5.0,5.0,96,0.01,,,0.57,JWX,2013-11-07 17:14:00,
2013-11-07 12:19:00,49.2,48.2,29.87,NW,320,5.0,7.0,96,0.01,,,0.57,JWX,2013-11-07 17:19:00,
2013-11-07 12:24:00,48.3,46.7,29.86,NW,326,9.0,9.0,94,0.01,,,0.57,JWX,2013-11-07 17:24:00,
2013-11-07 12:29:00,47.6,46.0,29.88,NNW,332,10.0,10.0,94,0.01,,,0.57,JWX,2013-11-07 17:29:00,
2013-11-07 12:34:00,47.1,45.5,29.89,NNW,336,8.0,12.0,94,0.01,,,0.57,JWX,2013-11-07 17:34:00,
2013-11-07 12:39:00,46.8,45.1,29.89,NNW,335,8.0,8.0,94,0.01,,,0.57,JWX,2013-11-07 17:39:00,
2013-11-07 12:44:00,46.6,44.9,29.89,NW,323,7.0,7.0,94,0.01,,,0.57,JWX,2013-11-07 17:44:00,
2013-11-07 12:49:00,46.4,44.8,29.88,NNW,327,7.0,7.0,94,0.01,,,0.57,JWX,2013-11-07 17:49:00,
2013-11-07 12:54:00,46.3,44.9,29.88,NNW,339,7.0,10.0,95,0.01,,,0.57,JWX,2013-11-07 17:54:00,
2013-11-07 12:58:00,46.1,44.7,29.88,NW,313,7.0,7.0,95,0.01,,,0.57,JWX,2013-11-07 17:58:00,
2013-11-07 13:03:00,46.1,44.7,29.88,NW,320,7.0,12.0,95,0.00,,,0.57,JWX,2013-11-07 18:03:00,
2013-11-07 13:08:00,46.0,44.7,29.88,NNW,330,7.0,7.0,95,0.00,,,0.57,JWX,2013-11-07 18:08:00,
2013-11-07 13:13:00,45.9,44.5,29.88,NNW,345,8.0,14.0,95,0.00,,,0.57,JWX,2013-11-07 18:13:00,
2013-11-07 13:18:00,45.8,44.5,29.89,North,349,9.0,9.0,95,0.00,,,0.57,JWX,2013-11-07 18:18:00,
2013-11-07 13:23:00,45.7,44.3,29.89,North,5,8.0,8.0,95,0.00,,,0.57,JWX,2013-11-07 18:23:00,
2013-11-07 13:28:00,45.4,43.7,29.89,North,349,7.0,8.0,94,0.00,,,0.57,JWX,2013-11-07 18:28:00,
2013-11-07 13:33:00,45.2,43.5,29.89,NNW,328,7.0,8.0,94,0.00,,,0.57,JWX,2013-11-07 18:33:00,
2013-11-07 13:38:00,45.0,43.3,29.89,NNW,339,7.0,7.0,94,0.00,,,0.57,JWX,2013-11-07 18:38:00,
2013-11-07 13:43:00,44.9,43.1,29.89,NNW,333,8.0,8.0,93,0.00,,,0.57,JWX,2013-11-07 18:43:00,
2013-11-07 13:48:00,44.8,43.2,29.89,NNW,342,8.0,8.0,94,0.00,,,0.57,JWX,2013-11-07 18:48:00,
2013-11-07 13:53:00,44.9,43.3,29.89,NNW,343,7.0,7.0,94,0.00,,,0.57,JWX,2013-11-07 18:53:00,
2013-11-07 13:58:00,45.0,43.3,29.89,NNW,331,5.0,7.0,94,0.00,,,0.57,JWX,2013-11-07 18:58:00,
2013-11-07 14:03:00,45.0,43.3,29.89,NNW,330,5.0,5.0,94,0.00,,,0.57,JWX,2013-11-07 19:03:00,
2013-11-07 14:08:00,45.1,43.5,29.90,NNW,331,5.0,6.0,94,0.00,,,0.57,JWX,2013-11-07 19:08:00,
2013-11-07 14:13:00,45.1,43.2,29.89,NNW,341,6.0,7.0,93,0.00,,,0.57,JWX,2013-11-07 19:13:00,
2013-11-07 14:18:00,45.1,43.0,29.89,NNW,342,6.0,8.0,92,0.00,,,0.57,JWX,2013-11-07 19:18:00,
2013-11-07 14:23:00,45.2,43.0,29.89,NNW,333,6.0,6.0,92,0.00,,,0.57,JWX,2013-11-07 19:23:00,
2013-11-07 14:28:00,45.3,42.8,29.89,NNW,330,6.0,6.0,91,0.00,,,0.57,JWX,2013-11-07 19:28:00,
2013-11-07 14:33:00,45.4,42.6,29.90,NNW,337,5.0,0.0,90,0.00,,,0.57,JWX,2013-11-07 19:33:00,
2013-11-07 14:38:00,45.5,43.0,29.90,NNW,327,4.0,6.0,91,0.00,,,0.57,JWX,2013-11-07 19:38:00,
2013-11-07 14:43:00,45.5,42.7,29.90,NNW,340,4.0,4.0,90,0.00,,,0.57,JWX,2013-11-07 19:43:00,
2013-11-07 14:48:00,45.5,42.7,29.90,NNW,334,4.0,0.0,90,0.00,,,0.57,JWX,2013-11-07 19:48:00,
2013-11-07 14:53:00,45.6,42.6,29.90,NNW,334,2.0,0.0,89,0.00,,,0.57,JWX,2013-11-07 19:53:00,
2013-11-07 14:58:00,45.7,42.9,29.90,NNW,334,1.0,0.0,90,0.00,,,0.57,JWX,2013-11-07 19:58:00,
2013-11-07 15:03:00,45.9,43.1,29.91,NNW,334,0.0,4.0,90,0.00,,,0.57,JWX,2013-11-07 20:03:00,
2013-11-07 15:08:00,46.0,43.3,29.91,NNW,327,1.0,0.0,90,0.00,,,0.57,JWX,2013-11-07 20:08:00,
2013-11-07 15:13:00,46.0,43.0,29.91,NW,322,2.0,0.0,89,0.00,,,0.57,JWX,2013-11-07 20:13:00,
2013-11-07 15:18:00,46.1,43.0,29.91,NW,318,2.0,0.0,89,0.00,,,0.57,JWX,2013-11-07 20:18:00,
2013-11-07 15:23:00,46.1,43.0,29.90,NW,310,2.0,2.0,89,0.00,,,0.57,JWX,2013-11-07 20:23:00,
2013-11-07 15:28:00,46.2,43.5,29.90,NW,311,2.0,2.0,90,0.00,,,0.57,JWX,2013-11-07 20:28:00,
2013-11-07 15:33:00,46.2,43.5,29.91,NNW,334,3.0,3.0,90,0.01,,,0.58,JWX,2013-11-07 20:33:00,
2013-11-07 15:38:00,45.9,42.8,29.91,NNW,338,4.0,4.0,89,0.01,,,0.58,JWX,2013-11-07 20:38:00,
2013-11-07 15:43:00,45.6,42.9,29.91,NW,322,4.0,5.0,90,0.01,,,0.58,JWX,2013-11-07 20:43:00,
2013-11-07 15:48:00,45.4,42.6,29.91,NW,320,4.0,4.0,90,0.01,,,0.58,JWX,2013-11-07 20:48:00,
2013-11-07 15:53:00,45.1,42.4,29.91,NNW,331,4.0,4.0,90,0.01,,,0.58,JWX,2013-11-07 20:53:00,
2013-11-07 15:58:00,44.6,41.3,29.91,NNW,344,6.0,6.0,88,0.01,,,0.58,JWX,2013-11-07 20:58:00,
2013-11-07 16:03:00,44.1,40.7,29.91,NNW,330,7.0,9.0,88,0.00,,,0.58,JWX,2013-11-07 21:03:00,
2013-11-07 16:08:00,44.0,40.4,29.91,NNW,329,8.0,8.0,87,0.00,,,0.58,JWX,2013-11-07 21:08:00,
2013-11-07 16:13:00,43.8,40.0,29.91,NNW,330,9.0,9.0,86,0.00,,,0.58,JWX,2013-11-07 21:13:00,
2013-11-07 16:18:00,43.7,39.5,29.91,North,349,8.0,8.0,85,0.00,,,0.58,JWX,2013-11-07 21:18:00,
2013-11-07 16:23:00,43.5,39.0,29.91,NNW,336,8.0,8.0,84,0.00,,,0.58,JWX,2013-11-07 21:23:00,
2013-11-07 16:28:00,43.4,39.1,29.91,NNW,340,7.0,8.0,85,0.00,,,0.58,JWX,2013-11-07 21:28:00,
2013-11-07 16:33:00,43.2,39.0,29.92,NNW,344,5.0,6.0,85,0.00,,,0.58,JWX,2013-11-07 21:33:00,
2013-11-07 16:38:00,42.9,39.1,29.92,NNW,344,3.0,3.0,86,0.00,,,0.58,JWX,2013-11-07 21:38:00,
2013-11-07 16:43:00,42.8,38.9,29.92,NNW,344,3.0,0.0,86,0.00,,,0.58,JWX,2013-11-07 21:43:00,
2013-11-07 16:48:00,42.9,39.4,29.92,NNW,345,2.0,0.0,87,0.00,,,0.58,JWX,2013-11-07 21:48:00,
2013-11-07 16:53:00,42.9,39.4,29.93,NNW,344,1.0,9.0,87,0.00,,,0.58,JWX,2013-11-07 21:53:00,
2013-11-07 16:58:00,43.0,39.4,29.93,NNW,343,2.0,0.0,87,0.00,,,0.58,JWX,2013-11-07 21:58:00,
2013-11-07 17:03:00,43.1,39.6,29.93,NNW,344,3.0,3.0,87,0.00,,,0.58,JWX,2013-11-07 22:03:00,
2013-11-07 17:08:00,43.0,39.1,29.93,NNW,340,2.0,0.0,86,0.00,,,0.58,JWX,2013-11-07 22:08:00,
2013-11-07 17:13:00,43.0,39.4,29.93,NNW,340,2.0,5.0,87,0.00,,,0.58,JWX,2013-11-07 22:13:00,
2013-11-07 17:18:00,43.0,39.7,29.93,NNW,329,2.0,0.0,88,0.00,,,0.58,JWX,2013-11-07 22:18:00,
2013-11-07 17:23:00,43.0,40.0,29.94,NNW,329,1.0,0.0,89,0.00,,,0.58,JWX,2013-11-07 22:23:00,
2013-11-07 17:28:00,42.9,40.0,29.94,NNW,328,1.0,3.0,89,0.00,,,0.58,JWX,2013-11-07 22:28:00,
2013-11-07 17:33:00,42.8,39.8,29.94,NNW,328,1.0,0.0,89,0.00,,,0.58,JWX,2013-11-07 22:33:00,
2013-11-07 17:38:00,42.7,39.6,29.94,NNW,327,2.0,0.0,89,0.00,,,0.58,JWX,2013-11-07 22:38:00,
2013-11-07 17:43:00,42.6,39.6,29.94,NW,313,2.0,2.0,89,0.00,,,0.58,JWX,2013-11-07 22:43:00,
2013-11-07 17:48:00,42.5,39.4,29.95,NW,311,3.0,3.0,89,0.00,,,0.58,JWX,2013-11-07 22:48:00,
2013-11-07 17:53:00,42.4,39.1,29.96,NW,307,4.0,4.0,88,0.00,,,0.58,JWX,2013-11-07 22:53:00,
2013-11-07 17:58:00,42.4,38.8,29.96,WNW,300,5.0,5.0,87,0.00,,,0.58,JWX,2013-11-07 22:58:00,
2013-11-07 18:03:00,42.4,38.8,29.96,NW,320,5.0,5.0,87,0.00,,,0.58,JWX,2013-11-07 23:03:00,
2013-11-07 18:08:00,42.3,38.4,29.96,NNW,338,5.0,5.0,86,0.00,,,0.58,JWX,2013-11-07 23:08:00,
2013-11-07 18:13:00,42.2,38.4,29.96,NNW,328,5.0,5.0,86,0.00,,,0.58,JWX,2013-11-07 23:13:00,
2013-11-07 18:18:00,42.0,37.9,29.96,WNW,303,4.0,4.0,85,0.00,,,0.58,JWX,2013-11-07 23:18:00,
2013-11-07 18:23:00,41.9,37.7,29.96,NNW,336,4.0,4.0,85,0.00,,,0.58,JWX,2013-11-07 23:23:00,
2013-11-07 18:28:00,41.8,37.5,29.96,NNW,327,3.0,6.0,85,0.00,,,0.58,JWX,2013-11-07 23:28:00,
2013-11-07 18:33:00,41.7,37.5,29.96,NNW,328,3.0,0.0,85,0.00,,,0.58,JWX,2013-11-07 23:33:00,
2013-11-07 18:38:00,41.3,37.2,29.96,NNW,328,1.0,0.0,85,0.00,,,0.58,JWX,2013-11-07 23:38:00,
2013-11-07 18:43:00,41.0,36.8,29.96,NNW,332,1.0,2.0,85,0.00,,,0.58,JWX,2013-11-07 23:43:00,
2013-11-07 18:48:00,40.7,36.5,29.96,NNW,329,2.0,3.0,85,0.00,,,0.58,JWX,2013-11-07 23:48:00,
2013-11-07 18:53:00,40.5,36.6,29.96,North,0,3.0,3.0,86,0.00,,,0.58,JWX,2013-11-07 23:53:00,
2013-11-07 18:58:00,40.5,36.6,29.96,North,352,3.0,3.0,86,0.00,,,0.58,JWX,2013-11-07 23:58:00,
2013-11-07 19:03:00,40.6,36.8,29.96,North,355,2.0,3.0,86,0.00,,,0.58,JWX,2013-11-08 00:03:00,
2013-11-07 19:08:00,40.7,36.8,29.96,North,355,2.0,2.0,86,0.00,,,0.58,JWX,2013-11-08 00:08:00,
2013-11-07 19:13:00,40.7,36.8,29.96,North,355,2.0,0.0,86,0.00,,,0.58,JWX,2013-11-08 00:13:00,
2013-11-07 19:18:00,40.7,36.8,29.97,North,355,1.0,2.0,86,0.00,,,0.58,JWX,2013-11-08 00:18:00,
2013-11-07 19:23:00,40.6,36.8,29.97,North,355,0.0,2.0,86,0.00,,,0.58,JWX,2013-11-08 00:23:00,
2013-11-07 19:28:00,40.4,36.9,29.97,North,355,1.0,2.0,87,0.00,,,0.58,JWX,2013-11-08 00:28:00,
2013-11-07 19:33:00,40.4,36.9,29.97,North,353,1.0,4.0,87,0.00,,,0.58,JWX,2013-11-08 00:33:00,
2013-11-07 19:38:00,40.4,36.6,29.97,NNW,344,1.0,5.0,86,0.00,,,0.58,JWX,2013-11-08 00:38:00,
2013-11-07 19:43:00,40.5,36.6,29.97,NNW,333,2.0,0.0,86,0.00,,,0.58,JWX,2013-11-08 00:43:00,
2013-11-07 19:48:00,40.5,36.6,29.98,NNW,333,2.0,4.0,86,0.00,,,0.58,JWX,2013-11-08 00:48:00,
2013-11-07 19:53:00,40.5,36.3,29.98,NNW,334,1.0,2.0,85,0.00,,,0.58,JWX,2013-11-08 00:53:00,
2013-11-07 19:58:00,40.6,36.5,29.98,NW,319,2.0,2.0,85,0.00,,,0.58,JWX,2013-11-08 00:58:00,
2013-11-07 20:03:00,40.6,36.5,29.98,NW,309,3.0,3.0,85,0.00,,,0.58,JWX,2013-11-08 01:03:00,
2013-11-07 20:08:00,40.7,36.5,29.98,NW,305,3.0,0.0,85,0.00,,,0.58,JWX,2013-11-08 01:08:00,
2013-11-07 20:13:00,40.8,37.0,29.98,NW,309,3.0,0.0,86,0.00,,,0.58,JWX,2013-11-08 01:13:00,
2013-11-07 20:18:00,40.8,37.0,29.98,NW,307,2.0,7.0,86,0.00,,,0.58,JWX,2013-11-08 01:18:00,
2013-11-07 20:23:00,40.9,36.4,29.99,NW,308,5.0,10.0,84,0.00,,,0.58,JWX,2013-11-08 01:23:00,
2013-11-07 20:28:00,41.0,36.5,29.99,WNW,302,9.0,9.0,84,0.00,,,0.58,JWX,2013-11-08 01:28:00,
2013-11-07 20:33:00,40.9,36.7,29.98,WNW,283,8.0,8.0,85,0.00,,,0.58,JWX,2013-11-08 01:33:00,
2013-11-07 20:38:00,40.8,36.7,29.99,NNW,345,7.0,10.0,85,0.00,,,0.58,JWX,2013-11-08 01:38:00,
2013-11-07 20:43:00,40.7,36.5,29.99,NW,305,6.0,6.0,85,0.00,,,0.58,JWX,2013-11-08 01:43:00,
2013-11-07 20:48:00,40.7,37.1,29.99,WNW,296,4.0,7.0,87,0.00,,,0.58,JWX,2013-11-08 01:48:00,
2013-11-07 20:53:00,40.6,37.1,29.99,NW,311,4.0,9.0,87,0.00,,,0.58,JWX,2013-11-08 01:53:00,
2013-11-07 20:58:00,40.6,36.8,29.99,NW,325,6.0,7.0,86,0.00,,,0.58,JWX,2013-11-08 01:58:00,
2013-11-07 21:03:00,40.5,36.6,30.00,NNW,344,7.0,7.0,86,0.00,,,0.58,JWX,2013-11-08 02:03:00,
2013-11-07 21:08:00,40.4,36.6,30.00,NW,315,7.0,7.0,86,0.00,,,0.58,JWX,2013-11-08 02:08:00,
2013-11-07 21:13:00,40.3,36.4,30.00,NW,308,5.0,8.0,86,0.00,,,0.58,JWX,2013-11-08 02:13:00,
2013-11-07 21:18:00,40.2,36.1,30.00,NW,310,6.0,16.0,85,0.00,,,0.58,JWX,2013-11-08 02:18:00,
2013-11-07 21:23:00,40.1,35.4,30.00,NW,312,7.0,7.0,83,0.00,,,0.58,JWX,2013-11-08 02:23:00,
2013-11-07 21:28:00,39.9,34.6,30.00,WNW,295,8.0,13.0,81,0.00,,,0.58,JWX,2013-11-08 02:28:00,
2013-11-07 21:33:00,39.6,33.3,30.00,NW,306,8.0,14.0,78,0.00,,,0.58,JWX,2013-11-08 02:33:00,
2013-11-07 21:38:00,39.5,32.6,30.01,NW,308,9.0,10.0,76,0.00,,,0.58,JWX,2013-11-08 02:38:00,
2013-11-07 21:43:00,39.2,31.6,30.01,NW,313,9.0,19.0,74,0.00,,,0.58,JWX,2013-11-08 02:43:00,
2013-11-07 21:48:00,39.0,31.4,30.01,WNW,298,9.0,9.0,74,0.00,,,0.58,JWX,2013-11-08 02:48:00,
2013-11-07 21:53:00,38.8,31.3,30.01,NW,317,8.0,8.0,74,0.00,,,0.58,JWX,2013-11-08 02:53:00,
2013-11-07 21:58:00,38.6,31.1,30.01,WNW,298,8.0,8.0,74,0.00,,,0.58,JWX,2013-11-08 02:58:00,
2013-11-07 22:03:00,38.6,30.8,30.01,WNW,294,8.0,8.0,73,0.00,,,0.58,JWX,2013-11-08 03:03:00,
2013-11-07 22:08:00,38.4,30.9,30.01,WNW,291,7.0,7.0,74,0.00,,,0.58,JWX,2013-11-08 03:08:00,
2013-11-07 22:13:00,38.3,30.4,30.01,WNW,299,6.0,6.0,73,0.00,,,0.58,JWX,2013-11-08 03:13:00,
2013-11-07 22:18:00,38.2,30.6,30.00,WNW,293,6.0,11.0,74,0.00,,,0.58,JWX,2013-11-08 03:18:00,
2013-11-07 22:23:00,38.1,30.6,30.00,NW,317,6.0,6.0,74,0.00,,,0.58,JWX,2013-11-08 03:23:00,
2013-11-07 22:28:00,37.9,30.7,30.00,WNW,300,5.0,7.0,75,0.00,,,0.58,JWX,2013-11-08 03:28:00,
2013-11-07 22:33:00,37.8,30.2,30.00,WNW,288,5.0,7.0,74,0.00,,,0.58,JWX,2013-11-08 03:33:00,
2013-11-07 22:38:00,37.8,30.6,30.00,WNW,301,5.0,10.0,75,0.00,,,0.58,JWX,2013-11-08 03:38:00,
2013-11-07 22:43:00,37.6,30.1,30.00,WNW,288,4.0,10.0,74,0.00,,,0.58,JWX,2013-11-08 03:43:00,
2013-11-07 22:48:00,37.4,29.9,30.00,NW,305,5.0,5.0,74,0.00,,,0.58,JWX,2013-11-08 03:48:00,
2013-11-07 22:53:00,37.3,30.0,30.00,NW,319,5.0,6.0,75,0.00,,,0.58,JWX,2013-11-08 03:53:00,
2013-11-07 22:58:00,37.3,30.0,30.00,WNW,285,5.0,6.0,75,0.00,,,0.58,JWX,2013-11-08 03:58:00,
2013-11-07 23:03:00,37.3,29.7,30.00,WNW,296,5.0,5.0,74,0.00,,,0.58,JWX,2013-11-08 04:03:00,
2013-11-07 23:08:00,37.3,30.0,30.00,NNW,329,5.0,5.0,75,0.00,,,0.58,JWX,2013-11-08 04:08:00,
2013-11-07 23:13:00,37.1,29.9,30.00,WNW,286,4.0,5.0,75,0.00,,,0.58,JWX,2013-11-08 04:13:00,
2013-11-07 23:18:00,36.8,29.7,30.00,WNW,289,5.0,9.0,75,0.00,,,0.58,JWX,2013-11-08 04:18:00,
2013-11-07 23:23:00,36.7,29.5,30.00,WNW,283,5.0,0.0,75,0.00,,,0.58,JWX,2013-11-08 04:23:00,
2013-11-07 23:28:00,36.6,29.5,30.00,WNW,292,4.0,4.0,75,0.00,,,0.58,JWX,2013-11-08 04:28:00,
2013-11-07 23:33:00,36.5,29.7,30.00,WNW,290,3.0,5.0,76,0.00,,,0.58,JWX,2013-11-08 04:33:00,
2013-11-07 23:38:00,36.4,29.5,30.00,WNW,293,3.0,3.0,76,0.00,,,0.58,JWX,2013-11-08 04:38:00,
2013-11-07 23:43:00,36.2,29.6,30.01,WNW,293,3.0,7.0,77,0.00,,,0.58,JWX,2013-11-08 04:43:00,
2013-11-07 23:48:00,36.1,29.6,30.01,West,281,4.0,5.0,77,0.00,,,0.58,JWX,2013-11-08 04:48:00,
2013-11-07 23:53:00,36.0,29.5,30.00,NW,304,4.0,9.0,77,0.00,,,0.58,JWX,2013-11-08 04:53:00,
2013-11-07 23:58:00,36.0,29.5,30.00,SW,220,5.0,10.0,77,0.00,,,0.58,JWX,2013-11-08 04:58:00,